createdAt,value
2022-08-22T00:01:34.569Z,100953.22
2022-08-22T00:02:48.331Z,100912.19
2022-08-22T00:02:54.566Z,100945.69
2022-08-22T00:02:55.559Z,100960.16
2022-08-22T00:03:02.381Z,100878.69
2022-08-22T00:04:01.381Z,100955.88
2022-08-22T00:06:28.190Z,100958.09
2022-08-22T00:08:55.504Z,100959.59
2022-08-22T00:11:25.504Z,100958.59
2022-08-22T00:13:52.735Z,100961.06
2022-08-22T00:16:28.852Z,100961.94
2022-08-22T00:18:55.645Z,100970.16
2022-08-22T00:21:22.474Z,100959.69
2022-08-22T00:23:49.280Z,100957.63
2022-08-22T00:26:16.077Z,100961.81
2022-08-22T00:28:43.004Z,100962.75
2022-08-22T00:31:09.891Z,100959.44
2022-08-22T00:33:36.688Z,100965.31
2022-08-22T00:36:03.602Z,100959.00
2022-08-22T00:38:30.509Z,100962.50
2022-08-22T00:40:57.409Z,100966.06
2022-08-22T00:43:24.211Z,100971.59
2022-08-22T00:45:51.047Z,100967.50
2022-08-22T00:48:17.848Z,100966.44
2022-08-22T00:50:44.632Z,100972.03
2022-08-22T00:53:11.493Z,100971.22
2022-08-22T00:55:38.296Z,100961.97
2022-08-22T00:58:05.133Z,100961.09
2022-08-22T01:00:35.288Z,100962.13
2022-08-22T01:03:03.506Z,100954.47
2022-08-22T01:05:30.295Z,100964.22
2022-08-22T01:07:57.318Z,100958.94
2022-08-22T01:10:24.269Z,100954.22
2022-08-22T01:12:51.072Z,100963.16
2022-08-22T01:15:17.894Z,100954.56
2022-08-22T01:17:45.243Z,100960.69
2022-08-22T01:20:12.147Z,100955.00
2022-08-22T01:22:38.964Z,100949.38
2022-08-22T01:25:18.279Z,100960.69
2022-08-22T01:27:48.679Z,100956.94
2022-08-22T01:30:17.033Z,100959.53
2022-08-22T01:32:44.554Z,100957.25
2022-08-22T01:35:11.371Z,100963.06
2022-08-22T01:37:43.432Z,100963.16
2022-08-22T01:40:10.813Z,100969.94
2022-08-22T01:42:37.699Z,100960.25
2022-08-22T01:45:04.508Z,100965.31
2022-08-22T01:47:31.333Z,100960.03
2022-08-22T01:50:04.371Z,100966.69
2022-08-22T01:52:31.146Z,100961.75
2022-08-22T01:54:57.994Z,100963.13
2022-08-22T01:57:24.861Z,100965.09
2022-08-22T01:59:52.808Z,100974.38
2022-08-22T02:02:19.601Z,100967.72
2022-08-22T02:04:47.150Z,100972.88
2022-08-22T02:07:14.175Z,100963.63
2022-08-22T02:09:40.989Z,100967.25
2022-08-22T02:12:21.543Z,100961.91
2022-08-22T02:14:48.965Z,100966.31
2022-08-22T02:17:15.849Z,100966.84
2022-08-22T02:19:42.657Z,100964.59
2022-08-22T02:22:09.453Z,100969.19
2022-08-22T02:24:36.297Z,100971.19
2022-08-22T02:27:06.000Z,100965.69
2022-08-22T02:29:32.794Z,100970.84
2022-08-22T02:31:59.597Z,100961.91
2022-08-22T02:34:26.413Z,100966.34
2022-08-22T02:36:53.768Z,100962.78
2022-08-22T02:39:24.909Z,100954.78
2022-08-22T02:41:51.753Z,100953.13
2022-08-22T02:44:18.776Z,100953.06
2022-08-22T02:46:46.923Z,100953.94
2022-08-22T02:49:13.744Z,100956.38
2022-08-22T02:51:41.376Z,100955.00
2022-08-22T02:54:08.926Z,100955.97
2022-08-22T02:56:35.785Z,100953.72
2022-08-22T02:59:02.584Z,100965.31
2022-08-22T03:01:32.209Z,100955.00
2022-08-22T03:03:59.012Z,100961.72
2022-08-22T03:06:26.905Z,100960.72
2022-08-22T03:08:56.207Z,100964.56
2022-08-22T03:11:22.996Z,100965.03
2022-08-22T03:13:49.781Z,100967.78
2022-08-22T03:16:16.608Z,100964.06
2022-08-22T03:18:43.406Z,100967.78
2022-08-22T03:21:10.577Z,100972.25
2022-08-22T03:23:37.433Z,100961.09
2022-08-22T03:26:07.795Z,100966.59
2022-08-22T03:28:37.055Z,100963.75
2022-08-22T03:31:04.257Z,100961.88
2022-08-22T03:33:31.229Z,100960.75
2022-08-22T03:35:58.085Z,100969.75
2022-08-22T03:38:24.931Z,100964.13
2022-08-22T03:40:51.750Z,100968.31
2022-08-22T03:43:18.614Z,100975.00
2022-08-22T03:45:45.756Z,100973.59
2022-08-22T03:48:12.577Z,100977.09
2022-08-22T03:50:39.364Z,100977.53
2022-08-22T03:53:15.420Z,100980.94
2022-08-22T03:55:46.025Z,100991.44
2022-08-22T03:58:16.329Z,100984.16
2022-08-22T04:00:56.024Z,100985.56
2022-08-22T04:03:23.625Z,100987.09
2022-08-22T04:05:53.310Z,100982.88
2022-08-22T04:08:24.272Z,100988.50
2022-08-22T04:10:52.954Z,100987.41
2022-08-22T04:13:19.780Z,100984.63
2022-08-22T04:15:52.583Z,100990.78
2022-08-22T04:18:19.495Z,100994.84
2022-08-22T04:20:46.286Z,100999.91
2022-08-22T04:23:14.025Z,100999.09
2022-08-22T04:25:40.863Z,100996.66
2022-08-22T04:28:07.656Z,100993.88
2022-08-22T04:30:34.568Z,101003.13
2022-08-22T04:33:01.685Z,101005.16
2022-08-22T04:35:28.509Z,101014.75
2022-08-22T04:37:56.183Z,101018.47
2022-08-22T04:40:23.284Z,101027.09
2022-08-22T04:42:50.192Z,101016.22
2022-08-22T04:45:16.982Z,101017.56
2022-08-22T04:47:43.785Z,101016.78
2022-08-22T04:50:13.988Z,101019.53
2022-08-22T04:52:40.790Z,101020.22
2022-08-22T04:55:07.639Z,101022.38
2022-08-22T04:57:34.437Z,101011.44
2022-08-22T05:00:02.361Z,101027.81
2022-08-22T05:02:29.330Z,101023.44
2022-08-22T05:04:56.422Z,101023.56
2022-08-22T05:07:23.216Z,101030.34
2022-08-22T05:09:50.029Z,101031.75
2022-08-22T05:12:16.833Z,101035.22
2022-08-22T05:14:43.752Z,101031.91
2022-08-22T05:17:10.766Z,101025.84
2022-08-22T05:19:42.282Z,101031.34
2022-08-22T05:22:09.197Z,101032.38
2022-08-22T05:24:36.028Z,101031.69
2022-08-22T05:27:03.249Z,101038.75
2022-08-22T05:29:31.420Z,101035.34
2022-08-22T05:31:58.244Z,101034.44
2022-08-22T05:34:25.103Z,101044.34
2022-08-22T05:36:52.331Z,101053.34
2022-08-22T05:39:19.167Z,101039.91
2022-08-22T05:41:45.965Z,101043.13
2022-08-22T05:44:12.754Z,101048.00
2022-08-22T05:46:39.564Z,101051.69
2022-08-22T05:49:06.349Z,101049.22
2022-08-22T05:51:33.147Z,101065.44
2022-08-22T05:53:59.966Z,101051.75
2022-08-22T05:56:26.749Z,101058.53
2022-08-22T05:58:53.601Z,101065.88
2022-08-22T06:01:20.503Z,101064.75
2022-08-22T06:03:47.734Z,101067.53
2022-08-22T06:06:14.572Z,101071.41
2022-08-22T06:08:41.386Z,101060.25
2022-08-22T06:11:08.351Z,101068.72
2022-08-22T06:13:35.256Z,101070.38
2022-08-22T06:16:02.695Z,101080.97
2022-08-22T06:18:29.505Z,101081.44
2022-08-22T06:20:56.373Z,101073.19
2022-08-22T06:23:23.184Z,101076.31
2022-08-22T06:25:50.346Z,101082.75
2022-08-22T06:28:17.251Z,101075.81
2022-08-22T06:30:45.104Z,101078.50
2022-08-22T06:33:12.574Z,101079.69
2022-08-22T06:35:58.063Z,101076.31
2022-08-22T06:38:24.848Z,101075.97
2022-08-22T06:40:56.679Z,101070.34
2022-08-22T06:43:23.540Z,101074.41
2022-08-22T06:45:50.337Z,101072.16
2022-08-22T06:48:17.155Z,101066.94
2022-08-22T06:50:44.126Z,101067.22
2022-08-22T06:53:10.968Z,101065.16
2022-08-22T06:55:37.767Z,101069.59
2022-08-22T06:58:04.621Z,101068.56
2022-08-22T07:00:31.461Z,101065.66
2022-08-22T07:02:58.301Z,101066.69
2022-08-22T07:05:25.098Z,101070.22
2022-08-22T07:07:52.422Z,101070.09
2022-08-22T07:10:19.302Z,101064.25
2022-08-22T07:12:46.217Z,101069.97
2022-08-22T07:15:13.089Z,101072.41
2022-08-22T07:17:40.718Z,101071.50
2022-08-22T07:20:07.897Z,101071.94
2022-08-22T07:22:34.916Z,101073.47
2022-08-22T07:25:02.142Z,101077.81
2022-08-22T07:27:29.061Z,101068.63
2022-08-22T07:29:55.865Z,101073.13
2022-08-22T07:32:22.667Z,101076.50
2022-08-22T07:34:49.552Z,101071.66
2022-08-22T07:37:16.357Z,101068.59
2022-08-22T07:39:43.204Z,101075.06
2022-08-22T07:42:11.327Z,101078.13
2022-08-22T07:44:38.436Z,101078.69
2022-08-22T07:47:05.224Z,101086.34
2022-08-22T07:49:32.282Z,101072.28
2022-08-22T07:51:59.256Z,101076.78
2022-08-22T07:54:27.667Z,101078.00
2022-08-22T07:56:54.560Z,101080.81
2022-08-22T07:59:22.189Z,101086.50
2022-08-22T08:01:49.037Z,101085.78
2022-08-22T08:04:16.221Z,101085.88
2022-08-22T08:06:43.007Z,101077.28
2022-08-22T08:09:09.806Z,101087.25
2022-08-22T08:11:37.577Z,101081.97
2022-08-22T08:14:04.428Z,101087.47
2022-08-22T08:16:31.437Z,101080.78
2022-08-22T08:18:58.394Z,101079.72
2022-08-22T08:21:25.362Z,101083.13
2022-08-22T08:23:52.170Z,101089.72
2022-08-22T08:26:19.001Z,101087.25
2022-08-22T08:28:46.213Z,101081.78
2022-08-22T08:31:13.205Z,101079.97
2022-08-22T08:33:40.009Z,101077.41
2022-08-22T08:36:06.816Z,101078.06
2022-08-22T08:38:33.657Z,101084.81
2022-08-22T08:41:00.473Z,101076.66
2022-08-22T08:43:27.961Z,101084.72
2022-08-22T08:45:56.515Z,101084.13
2022-08-22T08:48:26.166Z,101082.09
2022-08-22T08:50:52.962Z,101085.44
2022-08-22T08:53:19.840Z,101085.44
2022-08-22T08:55:50.826Z,101082.03
2022-08-22T08:58:17.960Z,101087.22
2022-08-22T09:00:44.832Z,101079.03
2022-08-22T09:03:11.968Z,101075.56
2022-08-22T09:05:42.856Z,101076.56
2022-08-22T09:08:11.808Z,101084.94
2022-08-22T09:10:39.073Z,101075.91
2022-08-22T09:13:11.339Z,101076.16
2022-08-22T09:15:39.460Z,101074.34
2022-08-22T09:18:06.612Z,101087.88
2022-08-22T09:20:34.462Z,101079.91
2022-08-22T09:23:01.256Z,101079.69
2022-08-22T09:25:38.520Z,101086.31
2022-08-22T09:28:07.326Z,101082.25
2022-08-22T09:30:34.257Z,101083.13
2022-08-22T09:33:01.140Z,101082.78
2022-08-22T09:35:27.948Z,101078.19
2022-08-22T09:37:55.118Z,101076.22
2022-08-22T09:42:52.897Z,101079.72
2022-08-22T09:45:19.736Z,101074.19
2022-08-22T09:47:46.547Z,101079.53
2022-08-22T09:50:13.620Z,101071.59
2022-08-22T09:52:43.956Z,101074.56
2022-08-22T09:55:13.473Z,101073.69
2022-08-22T09:57:43.055Z,101074.22
2022-08-22T10:00:10.527Z,101074.22
2022-08-22T10:02:53.704Z,101072.19
2022-08-22T10:05:40.437Z,101079.13
2022-08-22T10:08:07.332Z,101071.63
2022-08-22T10:10:38.235Z,101073.31
2022-08-22T10:13:10.437Z,101063.56
2022-08-22T10:15:37.501Z,101068.19
2022-08-22T10:18:04.511Z,101071.75
2022-08-22T10:20:31.389Z,101072.19
2022-08-22T10:23:01.160Z,101069.84
2022-08-22T10:25:28.692Z,101066.75
2022-08-22T10:27:55.536Z,101072.06
2022-08-22T10:30:22.359Z,101071.69
2022-08-22T10:32:49.183Z,101073.47
2022-08-22T10:35:16.847Z,101076.63
2022-08-22T10:37:46.043Z,101067.56
2022-08-22T10:40:13.437Z,101072.78
2022-08-22T10:42:40.341Z,101061.88
2022-08-22T10:45:08.551Z,101059.81
2022-08-22T10:47:35.422Z,101051.31
2022-08-22T10:50:02.286Z,101058.97
2022-08-22T10:52:35.556Z,101056.19
2022-08-22T10:55:05.829Z,101053.22
2022-08-22T10:57:36.990Z,101062.25
2022-08-22T11:00:03.916Z,101053.22
2022-08-22T11:02:30.898Z,101059.84
2022-08-22T11:04:58.365Z,101050.41
2022-08-22T11:07:26.150Z,101054.53
2022-08-22T11:09:53.180Z,101049.41
2022-08-22T11:12:21.251Z,101049.41
2022-08-22T11:14:48.068Z,101050.03
2022-08-22T11:17:28.037Z,101037.44
2022-08-22T11:19:58.619Z,101042.97
2022-08-22T11:22:25.751Z,101028.34
2022-08-22T11:24:56.370Z,101042.28
2022-08-22T11:27:30.676Z,101032.63
2022-08-22T11:30:06.849Z,101044.88
2022-08-22T11:32:33.657Z,101034.03
2022-08-22T11:35:00.506Z,101038.31
2022-08-22T11:37:43.519Z,101031.75
2022-08-22T11:40:11.893Z,101022.50
2022-08-22T11:42:47.487Z,101022.09
2022-08-22T11:45:16.377Z,101031.16
2022-08-22T11:47:43.673Z,101028.44
2022-08-22T11:50:13.348Z,101035.34
2022-08-22T11:52:40.720Z,101031.34
2022-08-22T11:55:09.405Z,101025.63
2022-08-22T11:57:36.565Z,101012.72
2022-08-22T12:00:05.707Z,101026.13
2022-08-22T12:02:33.220Z,101015.53
2022-08-22T12:05:00.238Z,101008.66
2022-08-22T12:07:27.045Z,101002.41
2022-08-22T12:09:55.935Z,101010.88
2022-08-22T12:12:22.733Z,101004.97
2022-08-22T12:14:50.132Z,101004.50
2022-08-22T12:17:50.709Z,101003.91
2022-08-22T12:20:16.714Z,101000.13
2022-08-22T12:22:44.443Z,101000.69
2022-08-22T12:25:17.324Z,101004.09
2022-08-22T12:27:50.664Z,100988.53
2022-08-22T12:30:17.661Z,101000.38
2022-08-22T12:32:45.840Z,100991.06
2022-08-22T12:35:15.886Z,100990.22
2022-08-22T12:37:53.079Z,100975.72
2022-08-22T12:40:29.586Z,100982.16
2022-08-22T12:42:57.825Z,100976.28
2022-08-22T12:45:24.620Z,100969.94
2022-08-22T12:47:51.440Z,100969.66
2022-08-22T12:50:18.226Z,100967.88
2022-08-22T12:52:45.474Z,100975.66
2022-08-22T12:55:12.294Z,100967.16
2022-08-22T12:57:39.181Z,100973.72
2022-08-22T13:00:05.979Z,100963.22
2022-08-22T13:02:32.838Z,100967.31
2022-08-22T13:05:00.843Z,100969.44
2022-08-22T13:07:28.567Z,100969.63
2022-08-22T13:09:56.494Z,100971.06
2022-08-22T13:12:23.298Z,100976.22
2022-08-22T13:14:50.859Z,100980.06
2022-08-22T13:17:24.467Z,100972.09
2022-08-22T13:19:52.229Z,100976.84
2022-08-22T13:22:19.041Z,100978.91
2022-08-22T13:24:52.482Z,100984.78
2022-08-22T13:27:20.398Z,100980.66
2022-08-22T13:29:47.265Z,100979.19
2022-08-22T13:32:14.438Z,100976.06
2022-08-22T13:34:43.516Z,100983.06
2022-08-22T13:37:10.641Z,100976.66
2022-08-22T13:39:38.541Z,100975.19
2022-08-22T13:42:14.334Z,100977.28
2022-08-22T13:44:41.449Z,100975.78
2022-08-22T13:47:14.641Z,100982.59
2022-08-22T13:49:41.829Z,100970.81
2022-08-22T13:52:29.167Z,100978.78
2022-08-22T13:54:55.824Z,100972.38
2022-08-22T13:57:23.844Z,100971.03
2022-08-22T13:59:54.210Z,100970.22
2022-08-22T14:02:24.617Z,100969.50
2022-08-22T14:04:57.945Z,100972.50
2022-08-22T14:07:26.052Z,100969.78
2022-08-22T14:09:54.414Z,100966.47
2022-08-22T14:12:21.908Z,100971.50
2022-08-22T14:14:49.304Z,100967.56
2022-08-22T14:17:19.459Z,100971.41
2022-08-22T14:19:52.815Z,100978.78
2022-08-22T14:22:31.792Z,100979.22
2022-08-22T14:25:01.834Z,100975.47
2022-08-22T14:27:28.924Z,100973.03
2022-08-22T14:29:56.200Z,100978.59
2022-08-22T14:32:25.261Z,100969.88
2022-08-22T14:34:54.498Z,100982.50
2022-08-22T14:37:21.296Z,100978.78
2022-08-22T14:39:49.026Z,100974.81
2022-08-22T14:42:17.540Z,100985.53
2022-08-22T14:44:45.276Z,100970.50
2022-08-22T14:47:32.228Z,100980.75
2022-08-22T14:49:59.012Z,100971.81
2022-08-22T14:52:25.849Z,100979.16
2022-08-22T14:54:56.358Z,100969.31
2022-08-22T14:57:23.458Z,100973.75
2022-08-22T14:59:50.561Z,100972.75
2022-08-22T15:02:17.412Z,100969.59
2022-08-22T15:04:45.356Z,100966.09
2022-08-22T15:07:12.143Z,100969.47
2022-08-22T15:09:40.506Z,100969.94
2022-08-22T15:12:08.836Z,100961.75
2022-08-22T15:14:37.373Z,100962.16
2022-08-22T15:17:05.596Z,100957.97
2022-08-22T15:19:32.595Z,100954.31
2022-08-22T15:21:59.437Z,100965.31
2022-08-22T15:24:27.704Z,100959.03
2022-08-22T15:26:55.745Z,100961.47
2022-08-22T15:29:22.588Z,100954.34
2022-08-22T15:31:50.275Z,100958.38
2022-08-22T15:34:18.012Z,100946.25
2022-08-22T15:36:45.057Z,100944.41
2022-08-22T15:39:11.872Z,100951.06
2022-08-22T15:41:40.617Z,100940.28
2022-08-22T15:44:08.586Z,100939.59
2022-08-22T15:46:40.756Z,100942.13
2022-08-22T15:49:07.632Z,100937.06
2022-08-22T15:51:38.068Z,100938.69
2022-08-22T15:54:24.239Z,100930.28
2022-08-22T15:56:51.512Z,100938.00
2022-08-22T15:59:18.433Z,100938.50
2022-08-22T16:01:49.793Z,100940.03
2022-08-22T16:04:16.756Z,100942.16
2022-08-22T16:06:43.605Z,100931.84
2022-08-22T16:09:10.432Z,100926.84
2022-08-22T16:11:38.049Z,100925.00
2022-08-22T16:14:04.928Z,100924.63
2022-08-22T16:16:33.936Z,100926.53
2022-08-22T16:19:00.748Z,100923.16
2022-08-22T16:21:27.546Z,100925.91
2022-08-22T16:23:56.140Z,100924.41
2022-08-22T16:26:23.131Z,100912.69
2022-08-22T16:28:58.665Z,100922.19
2022-08-22T16:31:27.238Z,100926.78
2022-08-22T16:33:54.633Z,100933.25
2022-08-22T16:36:22.519Z,100932.84
2022-08-22T16:38:49.367Z,100930.75
2022-08-22T16:41:16.152Z,100936.88
2022-08-22T16:43:52.608Z,100931.56
2022-08-22T16:46:22.052Z,100937.31
2022-08-22T16:48:54.703Z,100937.78
2022-08-22T16:51:22.374Z,100936.66
2022-08-22T16:53:49.361Z,100929.06
2022-08-22T16:56:16.245Z,100930.31
2022-08-22T16:58:56.977Z,100926.66
2022-08-22T17:01:27.845Z,100931.22
2022-08-22T17:03:54.692Z,100937.94
2022-08-22T17:06:23.176Z,100940.78
2022-08-22T17:08:50.122Z,100938.31
2022-08-22T17:11:16.917Z,100944.66
2022-08-22T17:13:43.757Z,100935.97
2022-08-22T17:16:12.453Z,100932.56
2022-08-22T17:18:40.136Z,100943.75
2022-08-22T17:21:06.980Z,100949.19
2022-08-22T17:23:34.685Z,100957.03
2022-08-22T17:26:01.486Z,100957.06
2022-08-22T17:28:31.179Z,100968.28
2022-08-22T17:31:01.153Z,100956.78
2022-08-22T17:33:28.562Z,100959.22
2022-08-22T17:35:55.800Z,100966.25
2022-08-22T17:38:22.740Z,100967.78
2022-08-22T17:40:49.541Z,100973.50
2022-08-22T17:43:16.360Z,100968.91
2022-08-22T17:45:43.413Z,100972.09
2022-08-22T17:48:10.211Z,100973.47
2022-08-22T17:50:37.018Z,100976.50
2022-08-22T17:53:03.845Z,100981.38
2022-08-22T17:55:31.238Z,100981.59
2022-08-22T17:57:58.179Z,100987.44
2022-08-22T18:00:25.846Z,100989.38
2022-08-22T18:02:52.738Z,100988.78
2022-08-22T18:05:19.610Z,100992.94
2022-08-22T18:07:46.425Z,100998.47
2022-08-22T18:10:14.489Z,101004.16
2022-08-22T18:12:41.322Z,101006.31
2022-08-22T18:15:08.125Z,101014.66
2022-08-22T18:17:35.051Z,101013.63
2022-08-22T18:20:02.008Z,101009.81
2022-08-22T18:22:28.857Z,101011.09
2022-08-22T18:24:55.657Z,101018.31
2022-08-22T18:27:34.687Z,101010.16
2022-08-22T18:30:02.393Z,101020.75
2022-08-22T18:32:29.229Z,101023.03
2022-08-22T18:34:59.568Z,101023.31
2022-08-22T18:37:29.424Z,101020.03
2022-08-22T18:39:56.382Z,101028.06
2022-08-22T18:42:23.241Z,101026.50
2022-08-22T18:44:50.505Z,101038.97
2022-08-22T18:47:17.316Z,101037.28
2022-08-22T18:49:44.175Z,101042.00
2022-08-22T18:52:12.659Z,101042.50
2022-08-22T18:54:39.455Z,101042.50
2022-08-22T18:57:06.924Z,101038.75
2022-08-22T18:59:33.749Z,101042.19
2022-08-22T19:02:00.626Z,101039.13
2022-08-22T19:04:27.472Z,101048.59
2022-08-22T19:06:56.265Z,101047.09
2022-08-22T19:09:23.139Z,101058.53
2022-08-22T19:11:49.962Z,101058.22
2022-08-22T19:14:16.830Z,101062.91
2022-08-22T19:16:44.200Z,101057.84
2022-08-22T19:19:17.067Z,101052.13
2022-08-22T19:22:10.692Z,101058.72
2022-08-22T19:24:37.601Z,101056.59
2022-08-22T19:27:04.406Z,101061.47
2022-08-22T19:29:31.218Z,101065.44
2022-08-22T19:31:58.284Z,101062.59
2022-08-22T19:34:25.086Z,101069.78
2022-08-22T19:36:51.904Z,101073.06
2022-08-22T19:39:18.692Z,101072.22
2022-08-22T19:41:45.708Z,101082.09
2022-08-22T19:44:12.585Z,101080.47
2022-08-22T19:46:39.461Z,101078.28
2022-08-22T19:49:06.247Z,101083.59
2022-08-22T19:51:33.079Z,101085.25
2022-08-22T19:53:59.885Z,101073.22
2022-08-22T19:56:26.695Z,101076.03
2022-08-22T19:58:53.578Z,101082.91
2022-08-22T20:01:20.409Z,101080.47
2022-08-22T20:03:47.253Z,101084.72
2022-08-22T20:06:33.772Z,101085.09
2022-08-22T20:09:01.592Z,101083.81
2022-08-22T20:11:28.460Z,101074.69
2022-08-22T20:13:56.053Z,101090.75
2022-08-22T20:16:23.329Z,101082.09
2022-08-22T20:19:00.147Z,101087.00
2022-08-22T20:21:38.616Z,101087.56
2022-08-22T20:24:07.081Z,101090.38
2022-08-22T20:26:34.042Z,101093.06
2022-08-22T20:29:01.105Z,101094.22
2022-08-22T20:31:28.561Z,101093.72
2022-08-22T20:33:55.517Z,101088.41
2022-08-22T20:36:27.565Z,101085.09
2022-08-22T20:38:56.409Z,101082.78
2022-08-22T20:41:23.346Z,101080.63
2022-08-22T20:43:50.501Z,101091.06
2022-08-22T20:46:19.162Z,101082.09
2022-08-22T20:48:47.185Z,101089.03
2022-08-22T20:51:14.154Z,101085.84
2022-08-22T20:53:40.983Z,101081.72
2022-08-22T20:56:09.421Z,101079.66
2022-08-22T20:58:37.584Z,101085.34
2022-08-22T21:01:04.693Z,101089.28
2022-08-22T21:03:32.005Z,101086.91
2022-08-22T21:05:58.796Z,101086.41
2022-08-22T21:08:26.353Z,101099.13
2022-08-22T21:11:11.986Z,101101.13
2022-08-22T21:13:38.866Z,101098.22
2022-08-22T21:16:05.714Z,101096.94
2022-08-22T21:18:32.508Z,101090.78
2022-08-22T21:20:59.343Z,101096.22
2022-08-22T21:23:26.141Z,101092.72
2022-08-22T21:25:52.939Z,101095.28
2022-08-22T21:28:19.746Z,101099.38
2022-08-22T21:30:47.405Z,101108.94
2022-08-22T21:33:14.300Z,101106.19
2022-08-22T21:35:50.877Z,101101.72
2022-08-22T21:38:17.828Z,101109.66
2022-08-22T21:40:44.624Z,101112.94
2022-08-22T21:43:11.576Z,101111.31
2022-08-22T21:45:38.379Z,101109.97
2022-08-22T21:48:05.165Z,101105.34
2022-08-22T21:50:34.669Z,101110.22
2022-08-22T21:53:01.565Z,101111.03
2022-08-22T21:55:28.401Z,101112.91
2022-08-22T21:57:55.332Z,101109.56
2022-08-22T22:00:22.228Z,101111.84
2022-08-22T22:02:49.146Z,101115.81
2022-08-22T22:05:16.283Z,101121.56
2022-08-22T22:07:43.898Z,101116.72
2022-08-22T22:10:10.815Z,101119.06
2022-08-22T22:12:37.628Z,101120.75
2022-08-22T22:15:04.409Z,101126.28
2022-08-22T22:17:31.209Z,101117.34
2022-08-22T22:19:58.027Z,101126.91
2022-08-22T22:22:24.828Z,101125.75
2022-08-22T22:24:51.628Z,101121.59
2022-08-22T22:27:18.479Z,101124.75
2022-08-22T22:29:45.316Z,101133.63
2022-08-22T22:32:12.171Z,101127.97
2022-08-22T22:34:39.178Z,101132.03
2022-08-22T22:37:06.160Z,101135.44
2022-08-22T22:39:32.964Z,101144.25
2022-08-22T22:41:59.808Z,101139.28
2022-08-22T22:44:26.615Z,101136.19
2022-08-22T22:46:53.649Z,101128.38
2022-08-22T22:49:20.458Z,101133.34
2022-08-22T22:51:47.265Z,101137.38
2022-08-22T22:54:15.662Z,101129.13
2022-08-22T22:56:42.536Z,101125.00
2022-08-22T22:59:14.871Z,101126.78
2022-08-22T23:01:41.688Z,101121.38
2022-08-22T23:04:10.349Z,101116.88
2022-08-22T23:06:37.140Z,101122.41
2022-08-22T23:09:03.923Z,101122.72
2022-08-22T23:11:30.753Z,101133.00
2022-08-22T23:13:57.575Z,101129.41
2022-08-22T23:16:24.373Z,101130.94
2022-08-22T23:18:51.188Z,101136.72
2022-08-22T23:21:18.128Z,101137.44
2022-08-22T23:23:44.991Z,101144.63
2022-08-22T23:26:12.167Z,101134.13
2022-08-22T23:28:38.973Z,101138.13
2022-08-22T23:31:05.763Z,101135.47
2022-08-22T23:33:35.352Z,101136.50
2022-08-22T23:36:02.217Z,101139.81
2022-08-22T23:38:29.027Z,101140.34
2022-08-22T23:40:55.836Z,101145.47
2022-08-22T23:43:22.640Z,101153.53
2022-08-22T23:45:49.684Z,101152.06
2022-08-22T23:48:16.505Z,101155.28
2022-08-22T23:50:43.329Z,101149.72
2022-08-22T23:53:10.382Z,101150.72
2022-08-22T23:55:37.201Z,101141.31
2022-08-22T23:58:04.046Z,101147.09
